Portada
METAR-TAF:

METAR-TAF

Aeroports :

Multan, Pakistan

latitud: 30-12-12N, longitud: 71-25-09E, altitud: 122 m

Observació

L'informe es va fer fa 10 minuts, a les 13:30 UTC
Vent calma
Temperatura 19°C
Humitat 73%
Pressió 1016 hPa
Visibilitat: 1500 m
fum

METAR: OPMT 021330Z 00000KT 1500 FU NSC 19/14 Q1016 TEMPO 1200

Hora: 18:40 (13:40 UTC)

Pronòstic

L'informe es va fer fa 3 hores i 55 minuts, a les 09:45 UTC
Pronòstic vàlid del 02 a les 12 UTC al 03 a les 06 UTC
Vent 5 kt del Nord-Est
Visibilitat: 1000 m
Escasses núvols a una alçada de 12000 ft
fum
A partir de les UTC
Vent kt del Nord
Visibilitat: 0600 m
boirina
Probabilitat 30% :
Temporalment
l' 03 a les 01 UTC al 03 a les 05 UTC
Vent 3 kt amb direcció variable
Visibilitat: 0200 m
boira

TAF: OPMT 020945Z 0212/0306 05005KT 1000 FU FEW120 TN10/0301Z FM 021800 00000KT 0600 BR NSC PROB30 TEMPO 0301/0305 VRB03KT 0200 FG VV///

Observacions i pronòstics meteorològics de més de 4000 aeroports (METAR i TAF).

Les estacions disponibles són els punts grocs i vermells al mapa.

Posi el ratolí al punt desitjat per veure el nom de l'estació.

Feu clic per veure les observacions i els pronòstics meteorològics.

Per canviar el mapa: feu clic els botons verds amb una creu de color negre per apropar; al botó verd amb un guió per allunyar la imatge; o en les fletxes verdes per a mapes adjacents.


METAR-TAF: